Bailey, Colorado
Current Conditions -  °F | °C
As of 5:54 AM on Saturday 20 Dec 2014 (Local Time) from K4BM Reporting Station
Clear Clear  
Wind Chill:   Ceiling: Unl
Heat Index: 21°   Visibility: 10mi
Dew Point: 12°   Wind: 12mph
Humidity: 68%   Direction: 320°NW
Pressure: 30.09"   Gusts: 17mph
Location:  39.41°N, 105.47°W
Report Text: K4BM 201254Z AUTO 32010G15KT 260V350 10SM CLR M06/M11 A3009 RMK AO2
Loading
Personal Weather Stations






























Interactive Weather Map New forecast layout! Learn more

10-Day Weather Forecast

Advertisements
Track Severe Weather on mobile